createdAt,value
2022-08-20T00:00:19.057Z,16.27
2022-08-20T00:03:28.095Z,17.48
2022-08-20T00:06:31.101Z,16.77
2022-08-20T00:09:36.749Z,18.70
2022-08-20T00:12:44.678Z,18.98
2022-08-20T00:15:48.213Z,18.27
2022-08-20T00:18:52.526Z,14.25
2022-08-20T00:21:56.467Z,20.15
2022-08-20T00:25:01.264Z,14.95
2022-08-20T00:28:04.557Z,15.23
2022-08-20T00:31:08.434Z,15.80
2022-08-20T00:34:12.619Z,16.33
2022-08-20T00:37:15.376Z,15.55
2022-08-20T00:40:22.328Z,16.20
2022-08-20T00:43:30.712Z,15.52
2022-08-20T00:46:35.709Z,13.73
2022-08-20T00:49:39.953Z,11.27
2022-08-20T00:52:48.582Z,9.93
2022-08-20T00:55:52.981Z,11.23
2022-08-20T00:58:56.116Z,11.35
2022-08-20T01:01:59.202Z,10.48
2022-08-20T01:05:04.450Z,8.02
2022-08-20T01:08:07.244Z,12.57
2022-08-20T01:11:12.794Z,6.88
2022-08-20T01:14:28.600Z,10.13
2022-08-20T01:17:33.473Z,8.75
2022-08-20T01:20:39.432Z,9.82
2022-08-20T01:23:46.388Z,8.52
2022-08-20T01:26:50.951Z,8.55
2022-08-20T01:29:53.855Z,7.25
2022-08-20T01:32:57.001Z,7.55
2022-08-20T01:36:00.552Z,8.65
2022-08-20T01:39:04.289Z,10.00
2022-08-20T01:42:12.834Z,8.70
2022-08-20T01:45:15.821Z,8.93
2022-08-20T01:48:20.225Z,11.98
2022-08-20T01:51:26.196Z,8.45
2022-08-20T01:54:29.321Z,9.13
2022-08-20T01:57:34.895Z,8.93
2022-08-20T02:00:37.591Z,8.70
2022-08-20T02:03:44.618Z,10.90
2022-08-20T02:06:57.107Z,10.80
2022-08-20T02:10:00.862Z,10.02
2022-08-20T02:13:07.539Z,11.35
2022-08-20T02:16:10.291Z,11.23
2022-08-20T02:19:14.110Z,9.10
2022-08-20T02:22:19.304Z,10.25
2022-08-20T02:25:23.257Z,10.13
2022-08-20T02:28:27.997Z,11.13
2022-08-20T02:31:34.843Z,9.30
2022-08-20T02:34:37.831Z,9.93
2022-08-20T02:37:41.506Z,9.95
2022-08-20T02:40:45.299Z,12.00
2022-08-20T02:43:49.717Z,10.48
2022-08-20T02:46:52.513Z,10.82
2022-08-20T02:49:55.244Z,9.43
2022-08-20T02:52:58.269Z,12.38
2022-08-20T02:56:02.307Z,8.57
2022-08-20T02:59:06.617Z,8.50
2022-08-20T03:02:09.321Z,8.38
2022-08-20T03:05:12.074Z,9.98
2022-08-20T03:08:15.642Z,10.02
2022-08-20T03:11:19.059Z,11.32
2022-08-20T03:14:23.174Z,10.65
2022-08-20T03:17:25.903Z,10.63
2022-08-20T03:20:28.896Z,8.95
2022-08-20T03:23:32.071Z,11.82
2022-08-20T03:26:37.508Z,9.85
2022-08-20T03:29:41.413Z,12.13
2022-08-20T03:32:44.408Z,9.40
2022-08-20T03:35:47.168Z,11.77
2022-08-20T03:38:49.853Z,12.00
2022-08-20T03:41:52.572Z,9.68
2022-08-20T03:44:58.968Z,9.70
2022-08-20T03:48:02.596Z,11.93
2022-08-20T03:51:05.948Z,9.32
2022-08-20T03:54:08.677Z,9.18
2022-08-20T03:57:14.191Z,10.60
2022-08-20T04:00:21.398Z,11.35
2022-08-20T04:03:24.167Z,14.40
2022-08-20T04:06:27.750Z,11.35
2022-08-20T04:09:30.481Z,10.48
2022-08-20T04:12:33.479Z,11.85
2022-08-20T04:15:39.375Z,9.00
2022-08-20T04:18:43.379Z,8.82
2022-08-20T04:22:04.628Z,11.70
2022-08-20T04:25:08.985Z,11.23
2022-08-20T04:28:14.231Z,9.20
2022-08-20T04:31:20.998Z,11.95
2022-08-20T04:34:28.615Z,8.05
2022-08-20T04:37:31.279Z,10.30
2022-08-20T04:40:52.113Z,13.55
2022-08-20T04:43:55.397Z,13.25
2022-08-20T04:46:59.411Z,11.15
2022-08-20T04:50:02.119Z,10.30
2022-08-20T04:53:06.069Z,12.80
2022-08-20T04:56:08.857Z,9.77
2022-08-20T04:59:11.557Z,13.82
2022-08-20T05:02:19.094Z,11.70
2022-08-20T05:05:22.366Z,9.40
2022-08-20T05:08:26.470Z,9.55
2022-08-20T05:11:35.324Z,10.02
2022-08-20T05:14:40.358Z,10.10
2022-08-20T05:17:45.364Z,13.02
2022-08-20T05:20:48.857Z,9.55
2022-08-20T05:23:51.546Z,12.32
2022-08-20T05:26:55.739Z,8.88
2022-08-20T05:30:01.274Z,9.52
2022-08-20T05:33:07.652Z,9.80
2022-08-20T05:36:10.382Z,9.68
2022-08-20T05:39:18.902Z,10.73
2022-08-20T05:42:21.548Z,11.45
2022-08-20T05:45:24.284Z,15.98
2022-08-20T05:48:29.206Z,9.73
2022-08-20T05:51:32.342Z,8.45
2022-08-20T05:54:35.440Z,8.43
2022-08-20T05:57:38.114Z,9.40
2022-08-20T06:00:41.112Z,9.40
2022-08-20T06:04:02.915Z,7.35
2022-08-20T06:07:07.322Z,12.68
2022-08-20T06:10:11.440Z,8.55
2022-08-20T06:13:14.329Z,6.65
2022-08-20T06:16:17.155Z,9.30
2022-08-20T06:19:26.175Z,6.95
2022-08-20T06:22:29.516Z,5.70
2022-08-20T06:25:36.135Z,10.05
2022-08-20T06:28:41.212Z,7.47
2022-08-20T06:31:43.948Z,7.90
2022-08-20T06:34:50.695Z,6.72
2022-08-20T06:37:53.847Z,6.50
2022-08-20T06:40:56.509Z,7.65
2022-08-20T06:44:00.504Z,9.82
2022-08-20T06:47:03.874Z,9.07
2022-08-20T06:50:10.294Z,10.43
2022-08-20T06:53:14.012Z,8.90
2022-08-20T06:56:16.829Z,8.57
2022-08-20T06:59:19.556Z,7.80
2022-08-20T07:02:29.155Z,6.85
2022-08-20T07:05:35.733Z,7.45
2022-08-20T07:08:38.660Z,6.57
2022-08-20T07:11:42.830Z,9.30
2022-08-20T07:14:45.534Z,5.00
2022-08-20T07:17:50.176Z,8.70
2022-08-20T07:20:57.567Z,7.43
2022-08-20T07:24:00.385Z,5.82
2022-08-20T07:27:03.035Z,8.60
2022-08-20T07:30:24.476Z,4.80
2022-08-20T07:33:28.203Z,10.93
2022-08-20T07:36:32.965Z,4.70
2022-08-20T07:39:35.828Z,5.72
2022-08-20T07:42:39.191Z,10.43
2022-08-20T07:45:43.069Z,8.30
2022-08-20T07:48:51.800Z,7.90
2022-08-20T07:51:55.930Z,6.53
2022-08-20T07:54:58.869Z,4.63
2022-08-20T07:58:08.817Z,5.35
2022-08-20T08:01:11.963Z,5.78
2022-08-20T08:04:16.016Z,7.05
2022-08-20T08:07:20.252Z,5.57
2022-08-20T08:10:24.068Z,5.13
2022-08-20T08:13:27.578Z,3.60
2022-08-20T08:16:32.671Z,4.93
2022-08-20T08:19:39.011Z,3.28
2022-08-20T08:22:44.209Z,7.43
2022-08-20T08:25:47.047Z,3.70
2022-08-20T08:28:49.810Z,3.53
2022-08-20T08:31:52.628Z,5.45
2022-08-20T08:34:55.536Z,5.90
2022-08-20T08:38:02.462Z,3.25
2022-08-20T08:41:08.407Z,5.78
2022-08-20T08:44:12.836Z,3.22
2022-08-20T08:47:19.454Z,4.85
2022-08-20T08:50:38.559Z,3.10
2022-08-20T08:53:51.082Z,4.70
2022-08-20T08:56:53.913Z,4.70
2022-08-20T09:00:03.924Z,3.70
2022-08-20T09:03:09.736Z,3.88
2022-08-20T09:06:14.737Z,3.10
2022-08-20T09:09:21.242Z,9.57
2022-08-20T09:12:25.747Z,3.08
2022-08-20T09:15:28.484Z,3.78
2022-08-20T09:18:31.339Z,2.03
2022-08-20T09:21:34.109Z,2.08
2022-08-20T09:24:39.113Z,2.95
2022-08-20T09:27:43.559Z,4.10
2022-08-20T09:30:47.655Z,4.43
2022-08-20T09:33:50.630Z,4.65
2022-08-20T09:36:53.428Z,4.00
2022-08-20T09:39:57.784Z,4.07
2022-08-20T09:43:00.719Z,3.05
2022-08-20T09:46:03.529Z,2.50
2022-08-20T09:49:06.407Z,6.22
2022-08-20T09:52:12.566Z,2.00
2022-08-20T09:55:21.079Z,7.70
2022-08-20T09:58:27.353Z,3.72
2022-08-20T10:01:30.143Z,4.10
2022-08-20T10:04:32.942Z,1.73
2022-08-20T10:07:36.153Z,3.10
2022-08-20T10:10:40.446Z,1.40
2022-08-20T10:13:43.522Z,1.35
2022-08-20T10:16:46.579Z,1.92
2022-08-20T10:19:49.675Z,2.20
2022-08-20T10:22:52.512Z,3.75
2022-08-20T10:25:56.975Z,2.38
2022-08-20T10:28:59.713Z,4.32
2022-08-20T10:32:09.796Z,4.60
2022-08-20T10:35:12.474Z,2.17
2022-08-20T10:38:15.483Z,4.53
2022-08-20T10:41:19.833Z,2.08
2022-08-20T10:44:23.253Z,5.40
2022-08-20T10:47:27.865Z,2.17
2022-08-20T10:50:31.438Z,4.85
2022-08-20T10:53:34.763Z,1.55
2022-08-20T10:56:39.331Z,2.42
2022-08-20T10:59:42.668Z,4.03
2022-08-20T11:02:47.256Z,4.82
2022-08-20T11:05:50.372Z,3.08
2022-08-20T11:08:53.385Z,5.15
2022-08-20T11:12:01.355Z,2.72
2022-08-20T11:15:04.909Z,9.07
2022-08-20T11:18:14.138Z,4.03
2022-08-20T11:21:16.918Z,5.00
2022-08-20T11:24:20.204Z,6.40
2022-08-20T11:27:25.667Z,3.50
2022-08-20T11:30:29.907Z,3.42
2022-08-20T11:33:32.963Z,4.10
2022-08-20T11:36:36.394Z,5.97
2022-08-20T11:39:41.847Z,9.25
2022-08-20T11:43:12.636Z,6.72
2022-08-20T11:46:10.386Z,5.32
2022-08-20T11:49:13.354Z,5.70
2022-08-20T11:52:16.178Z,7.82
2022-08-20T11:55:20.243Z,5.38
2022-08-20T11:58:33.854Z,12.38
2022-08-20T12:01:37.293Z,3.53
2022-08-20T12:04:40.151Z,4.90
2022-08-20T12:07:45.636Z,3.17
2022-08-20T12:10:48.551Z,4.95
2022-08-20T12:13:53.206Z,2.55
2022-08-20T12:16:55.953Z,6.60
2022-08-20T12:20:02.643Z,5.13
2022-08-20T12:23:08.594Z,8.23
2022-08-20T12:26:11.909Z,6.55
2022-08-20T12:29:16.675Z,10.23
2022-08-20T12:32:22.412Z,6.32
2022-08-20T12:35:25.915Z,9.38
2022-08-20T12:38:29.248Z,5.88
2022-08-20T12:41:32.266Z,3.75
2022-08-20T12:44:36.839Z,7.22
2022-08-20T12:47:40.887Z,3.97
2022-08-20T12:50:49.882Z,9.07
2022-08-20T12:53:52.681Z,5.20
2022-08-20T12:56:55.931Z,5.93
2022-08-20T13:00:01.812Z,3.72
2022-08-20T13:03:07.571Z,3.03
2022-08-20T13:06:10.545Z,5.95
2022-08-20T13:09:13.318Z,5.15
2022-08-20T13:12:16.601Z,7.90
2022-08-20T13:15:22.708Z,3.78
2022-08-20T13:18:26.210Z,9.20
2022-08-20T13:21:29.346Z,5.57
2022-08-20T13:24:32.472Z,2.80
2022-08-20T13:27:38.241Z,6.60
2022-08-20T13:30:42.489Z,9.25
2022-08-20T13:33:45.239Z,3.95
2022-08-20T13:36:48.000Z,2.42
2022-08-20T13:39:50.841Z,4.22
2022-08-20T13:42:53.879Z,5.82
2022-08-20T13:45:58.446Z,3.53
2022-08-20T13:49:01.359Z,8.35
2022-08-20T13:52:04.339Z,2.58
2022-08-20T13:55:08.548Z,5.93
2022-08-20T13:58:11.819Z,4.40
2022-08-20T14:01:16.138Z,6.38
2022-08-20T14:04:19.104Z,2.08
2022-08-20T14:07:26.717Z,7.30
2022-08-20T14:10:32.902Z,3.03
2022-08-20T14:13:35.693Z,4.60
2022-08-20T14:16:39.944Z,8.25
2022-08-20T14:19:43.725Z,4.72
2022-08-20T14:22:46.812Z,7.53
2022-08-20T14:25:50.513Z,6.90
2022-08-20T14:28:53.357Z,3.13
2022-08-20T14:31:57.516Z,5.97
2022-08-20T14:35:02.040Z,2.83
2022-08-20T14:38:05.458Z,5.35
2022-08-20T14:41:08.393Z,4.32
2022-08-20T14:44:11.164Z,6.55
2022-08-20T14:47:16.965Z,5.03
2022-08-20T14:50:20.914Z,4.38
2022-08-20T14:53:23.910Z,3.03
2022-08-20T14:56:26.961Z,2.45
2022-08-20T14:59:30.035Z,1.67
2022-08-20T15:02:34.240Z,2.30
2022-08-20T15:05:42.108Z,5.90
2022-08-20T15:08:47.696Z,8.05
2022-08-20T15:11:50.449Z,4.28
2022-08-20T15:14:53.625Z,3.63
2022-08-20T15:18:00.261Z,3.63
2022-08-20T15:21:03.936Z,2.97
2022-08-20T15:24:19.098Z,3.08
2022-08-20T15:27:23.734Z,4.22
2022-08-20T15:30:27.041Z,3.75
2022-08-20T15:33:31.838Z,5.03
2022-08-20T15:36:34.728Z,4.20
2022-08-20T15:39:38.435Z,3.05
2022-08-20T15:42:41.339Z,6.38
2022-08-20T15:45:44.466Z,4.43
2022-08-20T15:48:48.915Z,5.15
2022-08-20T15:51:51.738Z,2.75
2022-08-20T15:54:55.219Z,1.75
2022-08-20T15:58:04.914Z,4.50
2022-08-20T16:01:24.218Z,3.10
2022-08-20T16:05:02.486Z,3.17
2022-08-20T16:08:13.190Z,6.22
2022-08-20T16:11:21.026Z,5.05
2022-08-20T16:14:24.983Z,1.88
2022-08-20T16:17:31.409Z,5.10
2022-08-20T16:20:36.753Z,5.32
2022-08-20T16:23:40.680Z,3.08
2022-08-20T16:26:57.965Z,4.07
2022-08-20T16:30:03.042Z,3.58
2022-08-20T16:33:09.156Z,4.78
2022-08-20T16:36:21.250Z,10.77
2022-08-20T16:39:26.288Z,3.50
2022-08-20T16:42:32.166Z,5.95
2022-08-20T16:45:39.064Z,4.78
2022-08-20T16:48:49.917Z,3.13
2022-08-20T16:51:54.968Z,7.82
2022-08-20T16:54:58.352Z,4.22
2022-08-20T16:58:02.340Z,7.07
2022-08-20T17:01:07.529Z,5.25
2022-08-20T17:04:19.982Z,8.18
2022-08-20T17:07:30.992Z,9.00
2022-08-20T17:10:37.433Z,3.95
2022-08-20T17:13:41.361Z,4.90
2022-08-20T17:16:45.484Z,10.68
2022-08-20T17:19:52.816Z,3.22
2022-08-20T17:23:09.611Z,4.82
2022-08-20T17:26:21.736Z,6.60
2022-08-20T17:29:26.961Z,2.33
2022-08-20T17:32:30.261Z,4.05
2022-08-20T17:35:34.411Z,4.00
2022-08-20T17:38:41.004Z,3.70
2022-08-20T17:41:47.851Z,5.35
2022-08-20T17:44:53.085Z,2.25
2022-08-20T17:47:59.542Z,3.90
2022-08-20T17:51:06.355Z,3.88
2022-08-20T17:54:13.130Z,2.05
2022-08-20T17:57:16.652Z,4.85
2022-08-20T18:00:23.402Z,5.70
2022-08-20T18:03:27.030Z,4.07
2022-08-20T18:06:33.518Z,3.35
2022-08-20T18:09:46.543Z,3.92
2022-08-20T18:12:54.350Z,2.33
2022-08-20T18:15:58.626Z,4.75
2022-08-20T18:19:05.764Z,3.88
2022-08-20T18:22:11.474Z,1.92
2022-08-20T18:25:18.779Z,2.00
2022-08-20T18:28:23.361Z,2.80
2022-08-20T18:31:28.055Z,3.25
2022-08-20T18:34:36.426Z,5.25
2022-08-20T18:37:39.688Z,4.30
2022-08-20T18:40:43.934Z,3.72
2022-08-20T18:43:46.703Z,7.65
2022-08-20T18:46:54.357Z,13.02
2022-08-20T18:50:02.126Z,4.85
2022-08-20T18:53:10.371Z,5.30
2022-08-20T18:56:15.505Z,5.15
2022-08-20T18:59:19.790Z,2.88
2022-08-20T19:02:24.331Z,5.75
2022-08-20T19:05:28.739Z,4.22
2022-08-20T19:08:42.740Z,3.45
2022-08-20T19:11:59.137Z,4.03
2022-08-20T19:15:04.259Z,1.30
2022-08-20T19:18:11.496Z,2.00
2022-08-20T19:21:16.222Z,3.47
2022-08-20T19:24:23.975Z,1.67
2022-08-20T19:27:28.561Z,1.85
2022-08-20T19:30:34.355Z,1.75
2022-08-20T19:33:43.915Z,3.65
2022-08-20T19:36:47.695Z,4.75
2022-08-20T19:39:51.156Z,7.28
2022-08-20T19:42:55.844Z,1.70
2022-08-20T19:45:58.616Z,2.10
2022-08-20T19:49:12.021Z,3.95
2022-08-20T19:52:22.527Z,5.47
2022-08-20T19:55:26.504Z,4.10
2022-08-20T19:58:31.120Z,2.88
2022-08-20T20:01:34.630Z,2.90
2022-08-20T20:04:38.608Z,1.35
2022-08-20T20:07:44.916Z,1.05
2022-08-20T20:10:51.943Z,5.13
2022-08-20T20:14:00.757Z,1.55
2022-08-20T20:17:05.484Z,1.58
2022-08-20T20:20:18.765Z,5.22
2022-08-20T20:23:24.241Z,3.35
2022-08-20T20:26:31.331Z,2.38
2022-08-20T20:29:36.869Z,3.80
2022-08-20T20:32:40.470Z,5.18
2022-08-20T20:35:44.504Z,2.95
2022-08-20T20:38:53.876Z,2.13
2022-08-20T20:41:58.459Z,2.97
2022-08-20T20:45:02.659Z,3.42
2022-08-20T20:48:21.510Z,1.60
2022-08-20T20:51:27.172Z,2.60
2022-08-20T20:54:31.689Z,1.38
2022-08-20T20:57:38.712Z,3.22
2022-08-20T21:00:43.182Z,0.88
2022-08-20T21:03:45.949Z,2.40
2022-08-20T21:06:48.719Z,3.50
2022-08-20T21:09:52.113Z,1.60
2022-08-20T21:12:54.999Z,2.95
2022-08-20T21:15:59.235Z,3.80
2022-08-20T21:19:02.159Z,1.38
2022-08-20T21:22:04.978Z,4.22
2022-08-20T21:25:12.315Z,2.80
2022-08-20T21:28:15.035Z,3.40
2022-08-20T21:31:19.242Z,1.30
2022-08-20T21:34:22.010Z,3.30
2022-08-20T21:37:24.731Z,3.40
2022-08-20T21:40:28.443Z,5.80
2022-08-20T21:43:32.900Z,2.45
2022-08-20T21:46:37.130Z,1.80
2022-08-20T21:49:39.718Z,1.75
2022-08-20T21:52:43.947Z,1.83
2022-08-20T21:55:58.124Z,1.92
2022-08-20T21:59:02.105Z,1.90
2022-08-20T22:02:06.389Z,1.77
2022-08-20T22:05:09.306Z,2.42
2022-08-20T22:08:12.156Z,3.25
2022-08-20T22:11:15.096Z,3.88
2022-08-20T22:14:18.153Z,4.45
2022-08-20T22:17:22.343Z,2.55
2022-08-20T22:20:25.121Z,3.33
2022-08-20T22:23:27.887Z,1.30
2022-08-20T22:26:31.839Z,2.15
2022-08-20T22:29:35.250Z,2.95
2022-08-20T22:32:51.433Z,7.82
2022-08-20T22:35:56.124Z,5.35
2022-08-20T22:38:58.822Z,2.60
2022-08-20T22:42:01.555Z,1.90
2022-08-20T22:45:04.779Z,2.00
2022-08-20T22:48:20.673Z,2.58
2022-08-20T22:51:25.361Z,2.08
2022-08-20T22:54:28.206Z,3.90
2022-08-20T22:57:30.798Z,2.33
2022-08-20T23:00:37.068Z,2.08
2022-08-20T23:03:41.207Z,6.50
2022-08-20T23:06:44.028Z,2.05
2022-08-20T23:09:46.672Z,3.88
2022-08-20T23:12:49.392Z,1.88
2022-08-20T23:15:52.114Z,2.72
2022-08-20T23:18:56.329Z,7.55
2022-08-20T23:21:59.024Z,1.13
2022-08-20T23:25:01.973Z,1.52
2022-08-20T23:28:05.313Z,1.50
2022-08-20T23:31:08.003Z,2.00
2022-08-20T23:34:12.011Z,2.58
2022-08-20T23:37:18.822Z,4.25
2022-08-20T23:40:28.144Z,3.08
2022-08-20T23:43:31.196Z,2.05
2022-08-20T23:46:35.472Z,10.10
2022-08-20T23:49:39.527Z,1.38
2022-08-20T23:52:42.225Z,6.47
2022-08-20T23:55:45.004Z,2.05
2022-08-20T23:58:47.635Z,4.00
